Terminal Aerodrome Forecast
Issued by NWS Lake Charles, LA

Home | Current Version | Previous Version | Text Only | Print | Product List | Glossary On
Versions: 1 2 3 4 5 6 7 8 9 10 11 12 13 14
000
FTUS44 KLCH 030500
TAFAEX
TAF
KAEX 030520Z 0306/0406 VRB03KT 1/2SM FG OVC002
     FM031600 15006KT 3SM BR OVC004
     FM031800 16008KT P6SM OVC007
     FM032000 18010KT P6SM SCT015=

USA.gov is the U.S. government's official web portal to all federal, state and local government web resources and services.